sensor_id;sensor_type;location;lat;lon;timestamp;temperature;humidity
75281;HTU21D;63874;47.230;39.620;2023-05-14T00:02:13;15.24;48.60
75281;HTU21D;63874;47.230;39.620;2023-05-14T00:04:39;15.18;48.77
75281;HTU21D;63874;47.230;39.620;2023-05-14T00:07:05;15.12;48.99
75281;HTU21D;63874;47.230;39.620;2023-05-14T00:09:31;15.09;49.15
75281;HTU21D;63874;47.230;39.620;2023-05-14T00:11:57;15.07;49.34
75281;HTU21D;63874;47.230;39.620;2023-05-14T00:14:23;15.01;49.50
75281;HTU21D;63874;47.230;39.620;2023-05-14T00:16:49;14.93;49.67
75281;HTU21D;63874;47.230;39.620;2023-05-14T00:19:15;14.88;49.72
75281;HTU21D;63874;47.230;39.620;2023-05-14T00:21:40;14.78;49.82
75281;HTU21D;63874;47.230;39.620;2023-05-14T00:24:06;14.70;50.02
75281;HTU21D;63874;47.230;39.620;2023-05-14T00:26:32;14.63;50.11
75281;HTU21D;63874;47.230;39.620;2023-05-14T00:28:58;14.56;50.27
75281;HTU21D;63874;47.230;39.620;2023-05-14T00:31:24;14.56;50.53
75281;HTU21D;63874;47.230;39.620;2023-05-14T00:33:50;14.51;50.70
75281;HTU21D;63874;47.230;39.620;2023-05-14T00:36:16;14.45;50.85
75281;HTU21D;63874;47.230;39.620;2023-05-14T00:38:41;14.43;51.09
75281;HTU21D;63874;47.230;39.620;2023-05-14T00:41:07;14.38;51.35
75281;HTU21D;63874;47.230;39.620;2023-05-14T00:43:33;14.34;51.53
75281;HTU21D;63874;47.230;39.620;2023-05-14T00:45:59;14.23;51.55
75281;HTU21D;63874;47.230;39.620;2023-05-14T00:48:25;14.17;51.74
75281;HTU21D;63874;47.230;39.620;2023-05-14T00:50:51;14.14;51.91
75281;HTU21D;63874;47.230;39.620;2023-05-14T00:53:18;14.09;52.01
75281;HTU21D;63874;47.230;39.620;2023-05-14T00:55:46;14.03;52.18
75281;HTU21D;63874;47.230;39.620;2023-05-14T00:58:13;13.99;52.24
75281;HTU21D;63874;47.230;39.620;2023-05-14T01:00:40;13.97;52.36
75281;HTU21D;63874;47.230;39.620;2023-05-14T01:03:07;13.95;52.49
75281;HTU21D;63874;47.230;39.620;2023-05-14T01:08:43;13.90;52.59
75281;HTU21D;63874;47.230;39.620;2023-05-14T01:17:10;13.90;52.34
75281;HTU21D;63874;47.230;39.620;2023-05-14T01:19:42;13.92;52.20
75281;HTU21D;63874;47.230;39.620;2023-05-14T01:22:09;13.96;52.11
75281;HTU21D;63874;47.230;39.620;2023-05-14T01:24:36;13.97;52.05
75281;HTU21D;63874;47.230;39.620;2023-05-14T01:32:23;14.05;51.83
75281;HTU21D;63874;47.230;39.620;2023-05-14T01:34:51;14.06;51.77
75281;HTU21D;63874;47.230;39.620;2023-05-14T01:37:18;14.08;51.66
75281;HTU21D;63874;47.230;39.620;2023-05-14T01:39:44;14.07;51.68
75281;HTU21D;63874;47.230;39.620;2023-05-14T01:42:11;14.07;51.60
75281;HTU21D;63874;47.230;39.620;2023-05-14T01:44:38;14.07;51.62
75281;HTU21D;63874;47.230;39.620;2023-05-14T01:47:04;14.10;51.53
75281;HTU21D;63874;47.230;39.620;2023-05-14T01:49:30;14.13;51.46
75281;HTU21D;63874;47.230;39.620;2023-05-14T01:51:57;14.14;51.41
75281;HTU21D;63874;47.230;39.620;2023-05-14T01:54:23;14.15;51.43
75281;HTU21D;63874;47.230;39.620;2023-05-14T01:56:49;14.19;51.32
75281;HTU21D;63874;47.230;39.620;2023-05-14T01:59:15;14.22;51.21
75281;HTU21D;63874;47.230;39.620;2023-05-14T02:01:41;14.23;51.14
75281;HTU21D;63874;47.230;39.620;2023-05-14T02:04:07;14.26;51.05
75281;HTU21D;63874;47.230;39.620;2023-05-14T02:06:33;14.29;50.96
75281;HTU21D;63874;47.230;39.620;2023-05-14T02:08:59;14.34;50.82
75281;HTU21D;63874;47.230;39.620;2023-05-14T02:11:25;14.35;50.86
75281;HTU21D;63874;47.230;39.620;2023-05-14T02:13:50;14.40;50.72
75281;HTU21D;63874;47.230;39.620;2023-05-14T02:16:16;14.44;50.59
75281;HTU21D;63874;47.230;39.620;2023-05-14T02:18:43;14.47;50.58
75281;HTU21D;63874;47.230;39.620;2023-05-14T02:21:09;14.49;50.62
75281;HTU21D;63874;47.230;39.620;2023-05-14T02:23:35;14.55;50.37
75281;HTU21D;63874;47.230;39.620;2023-05-14T02:26:01;14.58;50.24
75281;HTU21D;63874;47.230;39.620;2023-05-14T02:28:27;14.63;50.11
75281;HTU21D;63874;47.230;39.620;2023-05-14T02:30:57;14.63;50.36
75281;HTU21D;63874;47.230;39.620;2023-05-14T02:33:24;14.60;50.55
75281;HTU21D;63874;47.230;39.620;2023-05-14T02:35:50;14.56;50.61
75281;HTU21D;63874;47.230;39.620;2023-05-14T02:38:16;14.50;50.70
75281;HTU21D;63874;47.230;39.620;2023-05-14T02:40:43;14.45;50.68
75281;HTU21D;63874;47.230;39.620;2023-05-14T02:43:09;14.45;50.58
75281;HTU21D;63874;47.230;39.620;2023-05-14T02:45:35;14.47;50.58
75281;HTU21D;63874;47.230;39.620;2023-05-14T02:48:01;14.47;50.60
75281;HTU21D;63874;47.230;39.620;2023-05-14T02:50:27;14.45;50.82
75281;HTU21D;63874;47.230;39.620;2023-05-14T02:52:53;14.44;50.89
75281;HTU21D;63874;47.230;39.620;2023-05-14T02:55:19;14.42;50.92
75281;HTU21D;63874;47.230;39.620;2023-05-14T02:57:45;14.43;50.82
75281;HTU21D;63874;47.230;39.620;2023-05-14T03:00:11;14.45;50.81
75281;HTU21D;63874;47.230;39.620;2023-05-14T03:02:37;14.49;50.79
75281;HTU21D;63874;47.230;39.620;2023-05-14T03:05:03;14.54;50.66
75281;HTU21D;63874;47.230;39.620;2023-05-14T03:07:29;14.54;50.66
75281;HTU21D;63874;47.230;39.620;2023-05-14T03:09:55;14.53;50.64
75281;HTU21D;63874;47.230;39.620;2023-05-14T03:12:21;14.57;50.56
75281;HTU21D;63874;47.230;39.620;2023-05-14T03:14:47;14.59;50.64
75281;HTU21D;63874;47.230;39.620;2023-05-14T03:17:13;14.58;50.75
75281;HTU21D;63874;47.230;39.620;2023-05-14T03:19:38;14.59;50.82
75281;HTU21D;63874;47.230;39.620;2023-05-14T03:22:06;14.59;50.79
75281;HTU21D;63874;47.230;39.620;2023-05-14T03:24:32;14.65;50.72
75281;HTU21D;63874;47.230;39.620;2023-05-14T03:26:58;14.68;50.71
75281;HTU21D;63874;47.230;39.620;2023-05-14T03:29:23;14.75;50.65
75281;HTU21D;63874;47.230;39.620;2023-05-14T03:31:49;14.85;50.36
75281;HTU21D;63874;47.230;39.620;2023-05-14T03:34:15;14.94;50.22
75281;HTU21D;63874;47.230;39.620;2023-05-14T03:36:41;15.01;50.03
75281;HTU21D;63874;47.230;39.620;2023-05-14T03:39:07;15.07;49.97
75281;HTU21D;63874;47.230;39.620;2023-05-14T03:41:34;15.13;49.76
75281;HTU21D;63874;47.230;39.620;2023-05-14T03:44:00;15.23;49.66
75281;HTU21D;63874;47.230;39.620;2023-05-14T03:46:26;15.31;49.58
75281;HTU21D;63874;47.230;39.620;2023-05-14T03:48:54;15.39;49.51
75281;HTU21D;63874;47.230;39.620;2023-05-14T03:51:21;15.44;49.47
75281;HTU21D;63874;47.230;39.620;2023-05-14T03:53:46;15.51;49.45
75281;HTU21D;63874;47.230;39.620;2023-05-14T03:56:13;15.60;49.37
75281;HTU21D;63874;47.230;39.620;2023-05-14T03:58:38;15.70;49.23
75281;HTU21D;63874;47.230;39.620;2023-05-14T04:01:05;15.81;48.73
75281;HTU21D;63874;47.230;39.620;2023-05-14T04:03:30;15.89;48.61
75281;HTU21D;63874;47.230;39.620;2023-05-14T04:05:56;15.99;48.36
75281;HTU21D;63874;47.230;39.620;2023-05-14T04:08:22;16.10;48.24
75281;HTU21D;63874;47.230;39.620;2023-05-14T04:10:49;16.20;48.05
75281;HTU21D;63874;47.230;39.620;2023-05-14T04:13:14;16.33;47.92
75281;HTU21D;63874;47.230;39.620;2023-05-14T04:15:40;16.44;47.75
75281;HTU21D;63874;47.230;39.620;2023-05-14T04:18:06;16.56;47.44
75281;HTU21D;63874;47.230;39.620;2023-05-14T04:20:32;16.71;47.41
75281;HTU21D;63874;47.230;39.620;2023-05-14T04:22:58;16.85;47.14
75281;HTU21D;63874;47.230;39.620;2023-05-14T04:25:24;16.98;47.04
75281;HTU21D;63874;47.230;39.620;2023-05-14T04:27:50;17.11;46.44
75281;HTU21D;63874;47.230;39.620;2023-05-14T04:30:15;17.25;46.31
75281;HTU21D;63874;47.230;39.620;2023-05-14T04:32:41;17.40;46.25
75281;HTU21D;63874;47.230;39.620;2023-05-14T04:35:07;17.53;46.12
75281;HTU21D;63874;47.230;39.620;2023-05-14T04:37:34;17.67;45.97
75281;HTU21D;63874;47.230;39.620;2023-05-14T04:40:00;17.82;45.85
75281;HTU21D;63874;47.230;39.620;2023-05-14T04:42:26;17.96;45.58
75281;HTU21D;63874;47.230;39.620;2023-05-14T04:44:52;18.09;45.53
75281;HTU21D;63874;47.230;39.620;2023-05-14T04:47:18;18.21;45.28
75281;HTU21D;63874;47.230;39.620;2023-05-14T04:49:45;18.33;44.84
75281;HTU21D;63874;47.230;39.620;2023-05-14T04:52:11;18.43;44.80
75281;HTU21D;63874;47.230;39.620;2023-05-14T04:54:37;18.54;44.79
75281;HTU21D;63874;47.230;39.620;2023-05-14T04:57:03;18.66;44.83
75281;HTU21D;63874;47.230;39.620;2023-05-14T04:59:29;18.79;44.75
75281;HTU21D;63874;47.230;39.620;2023-05-14T05:01:55;18.93;44.78
75281;HTU21D;63874;47.230;39.620;2023-05-14T05:04:22;19.03;44.46
75281;HTU21D;63874;47.230;39.620;2023-05-14T05:06:49;19.13;44.32
75281;HTU21D;63874;47.230;39.620;2023-05-14T05:09:16;19.22;44.16
75281;HTU21D;63874;47.230;39.620;2023-05-14T05:11:42;19.33;43.80
75281;HTU21D;63874;47.230;39.620;2023-05-14T05:14:08;19.48;43.74
75281;HTU21D;63874;47.230;39.620;2023-05-14T05:16:34;19.71;43.29
75281;HTU21D;63874;47.230;39.620;2023-05-14T05:18:59;19.88;43.06
75281;HTU21D;63874;47.230;39.620;2023-05-14T05:21:25;20.02;42.81
75281;HTU21D;63874;47.230;39.620;2023-05-14T05:23:51;20.14;42.64
75281;HTU21D;63874;47.230;39.620;2023-05-14T05:26:17;20.21;42.48
75281;HTU21D;63874;47.230;39.620;2023-05-14T05:28:43;20.27;42.45
75281;HTU21D;63874;47.230;39.620;2023-05-14T05:31:09;20.35;42.23
75281;HTU21D;63874;47.230;39.620;2023-05-14T05:33:35;20.45;41.94
75281;HTU21D;63874;47.230;39.620;2023-05-14T05:36:00;20.53;42.03
75281;HTU21D;63874;47.230;39.620;2023-05-14T05:38:26;20.64;41.87
75281;HTU21D;63874;47.230;39.620;2023-05-14T05:40:52;20.74;41.77
75281;HTU21D;63874;47.230;39.620;2023-05-14T05:43:18;20.86;41.72
75281;HTU21D;63874;47.230;39.620;2023-05-14T05:45:44;20.96;41.42
75281;HTU21D;63874;47.230;39.620;2023-05-14T05:48:10;21.06;40.46
75281;HTU21D;63874;47.230;39.620;2023-05-14T05:50:36;21.11;40.30
75281;HTU21D;63874;47.230;39.620;2023-05-14T05:53:02;21.17;40.24
75281;HTU21D;63874;47.230;39.620;2023-05-14T05:55:28;21.23;40.33
75281;HTU21D;63874;47.230;39.620;2023-05-14T05:57:54;21.30;40.40
75281;HTU21D;63874;47.230;39.620;2023-05-14T06:00:20;21.43;40.20
75281;HTU21D;63874;47.230;39.620;2023-05-14T06:02:46;21.55;40.06
75281;HTU21D;63874;47.230;39.620;2023-05-14T06:05:12;21.63;39.91
75281;HTU21D;63874;47.230;39.620;2023-05-14T06:07:38;21.63;39.26
75281;HTU21D;63874;47.230;39.620;2023-05-14T06:10:04;21.59;39.13
75281;HTU21D;63874;47.230;39.620;2023-05-14T06:12:30;21.61;39.42
75281;HTU21D;63874;47.230;39.620;2023-05-14T06:14:56;21.69;38.51
75281;HTU21D;63874;47.230;39.620;2023-05-14T06:17:25;21.79;37.83
75281;HTU21D;63874;47.230;39.620;2023-05-14T06:19:52;21.79;37.11
75281;HTU21D;63874;47.230;39.620;2023-05-14T06:22:18;21.83;36.44
75281;HTU21D;63874;47.230;39.620;2023-05-14T06:24:44;21.83;36.21
75281;HTU21D;63874;47.230;39.620;2023-05-14T06:27:10;21.85;36.40
75281;HTU21D;63874;47.230;39.620;2023-05-14T06:29:36;21.92;35.76
75281;HTU21D;63874;47.230;39.620;2023-05-14T06:32:03;21.95;34.86
75281;HTU21D;63874;47.230;39.620;2023-05-14T06:34:29;21.95;34.79
75281;HTU21D;63874;47.230;39.620;2023-05-14T06:36:56;22.02;34.79
75281;HTU21D;63874;47.230;39.620;2023-05-14T06:39:22;22.04;34.72
75281;HTU21D;63874;47.230;39.620;2023-05-14T06:41:49;22.07;34.75
75281;HTU21D;63874;47.230;39.620;2023-05-14T06:44:15;22.10;34.78
75281;HTU21D;63874;47.230;39.620;2023-05-14T06:46:41;22.18;33.99
75281;HTU21D;63874;47.230;39.620;2023-05-14T06:49:07;22.19;33.83
75281;HTU21D;63874;47.230;39.620;2023-05-14T06:51:33;22.20;33.68
75281;HTU21D;63874;47.230;39.620;2023-05-14T06:53:59;22.23;33.65
75281;HTU21D;63874;47.230;39.620;2023-05-14T06:56:24;22.27;33.86
75281;HTU21D;63874;47.230;39.620;2023-05-14T06:58:50;22.32;33.59
75281;HTU21D;63874;47.230;39.620;2023-05-14T07:01:18;22.35;33.82
75281;HTU21D;63874;47.230;39.620;2023-05-14T07:03:43;22.39;33.71
75281;HTU21D;63874;47.230;39.620;2023-05-14T07:06:09;22.46;33.09
75281;HTU21D;63874;47.230;39.620;2023-05-14T07:08:35;22.49;33.37
75281;HTU21D;63874;47.230;39.620;2023-05-14T07:11:01;22.53;33.21
75281;HTU21D;63874;47.230;39.620;2023-05-14T07:13:27;22.56;32.49
75281;HTU21D;63874;47.230;39.620;2023-05-14T07:15:53;22.61;32.41
75281;HTU21D;63874;47.230;39.620;2023-05-14T07:18:21;22.64;32.39
75281;HTU21D;63874;47.230;39.620;2023-05-14T07:20:47;22.67;32.51
75281;HTU21D;63874;47.230;39.620;2023-05-14T07:23:13;22.69;31.55
75281;HTU21D;63874;47.230;39.620;2023-05-14T07:25:39;22.70;31.90
75281;HTU21D;63874;47.230;39.620;2023-05-14T07:28:07;22.75;31.45
75281;HTU21D;63874;47.230;39.620;2023-05-14T07:30:33;22.75;31.67
75281;HTU21D;63874;47.230;39.620;2023-05-14T07:32:59;22.78;31.34
75281;HTU21D;63874;47.230;39.620;2023-05-14T07:35:25;22.78;31.28
75281;HTU21D;63874;47.230;39.620;2023-05-14T07:37:51;22.76;31.26
75281;HTU21D;63874;47.230;39.620;2023-05-14T07:40:17;22.77;31.49
75281;HTU21D;63874;47.230;39.620;2023-05-14T07:42:43;22.77;31.33
75281;HTU21D;63874;47.230;39.620;2023-05-14T07:45:09;22.81;31.33
75281;HTU21D;63874;47.230;39.620;2023-05-14T07:47:35;22.71;31.28
75281;HTU21D;63874;47.230;39.620;2023-05-14T07:50:01;22.65;31.21
75281;HTU21D;63874;47.230;39.620;2023-05-14T07:52:27;22.61;31.44
75281;HTU21D;63874;47.230;39.620;2023-05-14T07:54:53;22.58;31.54
75281;HTU21D;63874;47.230;39.620;2023-05-14T07:57:19;22.58;31.53
75281;HTU21D;63874;47.230;39.620;2023-05-14T07:59:47;22.56;31.19
75281;HTU21D;63874;47.230;39.620;2023-05-14T08:02:13;22.52;31.19
75281;HTU21D;63874;47.230;39.620;2023-05-14T08:04:40;22.53;31.03
75281;HTU21D;63874;47.230;39.620;2023-05-14T08:07:06;22.50;30.44
75281;HTU21D;63874;47.230;39.620;2023-05-14T08:09:33;22.48;30.42
75281;HTU21D;63874;47.230;39.620;2023-05-14T08:11:59;22.51;30.74
75281;HTU21D;63874;47.230;39.620;2023-05-14T08:14:25;22.60;30.80
75281;HTU21D;63874;47.230;39.620;2023-05-14T08:16:51;22.72;31.09
75281;HTU21D;63874;47.230;39.620;2023-05-14T08:19:17;22.91;30.82
75281;HTU21D;63874;47.230;39.620;2023-05-14T08:21:43;22.99;30.64
75281;HTU21D;63874;47.230;39.620;2023-05-14T08:24:09;23.03;30.32
75281;HTU21D;63874;47.230;39.620;2023-05-14T08:26:38;23.02;30.13
75281;HTU21D;63874;47.230;39.620;2023-05-14T08:29:04;22.99;29.43
75281;HTU21D;63874;47.230;39.620;2023-05-14T08:31:30;22.96;29.61
75281;HTU21D;63874;47.230;39.620;2023-05-14T08:33:56;22.93;28.91
75281;HTU21D;63874;47.230;39.620;2023-05-14T08:36:22;22.88;28.02
75281;HTU21D;63874;47.230;39.620;2023-05-14T08:38:47;22.79;28.35
75281;HTU21D;63874;47.230;39.620;2023-05-14T08:41:14;22.75;28.77
75281;HTU21D;63874;47.230;39.620;2023-05-14T08:43:53;22.78;28.99
75281;HTU21D;63874;47.230;39.620;2023-05-14T08:46:23;22.86;29.19
75281;HTU21D;63874;47.230;39.620;2023-05-14T08:49:03;23.02;29.13
75281;HTU21D;63874;47.230;39.620;2023-05-14T08:51:29;23.22;28.99
75281;HTU21D;63874;47.230;39.620;2023-05-14T08:53:58;23.52;28.93
75281;HTU21D;63874;47.230;39.620;2023-05-14T08:56:25;23.86;28.64
75281;HTU21D;63874;47.230;39.620;2023-05-14T08:58:51;24.24;28.45
75281;HTU21D;63874;47.230;39.620;2023-05-14T09:01:17;24.68;27.65
75281;HTU21D;63874;47.230;39.620;2023-05-14T09:03:44;25.05;26.73
75281;HTU21D;63874;47.230;39.620;2023-05-14T09:06:12;25.44;25.17
75281;HTU21D;63874;47.230;39.620;2023-05-14T09:08:38;25.67;24.33
75281;HTU21D;63874;47.230;39.620;2023-05-14T09:11:04;25.83;23.41
75281;HTU21D;63874;47.230;39.620;2023-05-14T09:13:31;25.61;23.43
75281;HTU21D;63874;47.230;39.620;2023-05-14T09:15:57;25.25;24.34
75281;HTU21D;63874;47.230;39.620;2023-05-14T09:18:24;24.77;24.63
75281;HTU21D;63874;47.230;39.620;2023-05-14T09:20:50;24.43;25.28
75281;HTU21D;63874;47.230;39.620;2023-05-14T09:23:16;24.02;25.41
75281;HTU21D;63874;47.230;39.620;2023-05-14T09:25:42;23.62;25.34
75281;HTU21D;63874;47.230;39.620;2023-05-14T09:28:08;23.42;25.85
75281;HTU21D;63874;47.230;39.620;2023-05-14T09:30:34;23.24;25.80
75281;HTU21D;63874;47.230;39.620;2023-05-14T09:33:01;23.06;26.08
75281;HTU21D;63874;47.230;39.620;2023-05-14T09:35:28;22.95;26.26
75281;HTU21D;63874;47.230;39.620;2023-05-14T09:37:54;22.92;26.25
75281;HTU21D;63874;47.230;39.620;2023-05-14T09:40:21;22.86;26.22
75281;HTU21D;63874;47.230;39.620;2023-05-14T09:42:48;22.73;25.91
75281;HTU21D;63874;47.230;39.620;2023-05-14T09:45:17;22.71;26.23
75281;HTU21D;63874;47.230;39.620;2023-05-14T09:47:43;22.71;26.46
75281;HTU21D;63874;47.230;39.620;2023-05-14T09:50:09;22.73;26.56
75281;HTU21D;63874;47.230;39.620;2023-05-14T09:52:36;22.73;26.29
75281;HTU21D;63874;47.230;39.620;2023-05-14T09:55:03;22.78;26.36
75281;HTU21D;63874;47.230;39.620;2023-05-14T09:57:29;22.77;26.65
75281;HTU21D;63874;47.230;39.620;2023-05-14T09:59:54;22.83;27.45
75281;HTU21D;63874;47.230;39.620;2023-05-14T10:02:34;22.86;28.01
75281;HTU21D;63874;47.230;39.620;2023-05-14T10:05:06;22.82;29.06
75281;HTU21D;63874;47.230;39.620;2023-05-14T10:07:53;22.76;29.57
75281;HTU21D;63874;47.230;39.620;2023-05-14T10:10:23;22.85;29.29
75281;HTU21D;63874;47.230;39.620;2023-05-14T10:12:56;23.09;28.81
75281;HTU21D;63874;47.230;39.620;2023-05-14T10:18:30;24.65;27.42
75281;HTU21D;63874;47.230;39.620;2023-05-14T10:21:04;26.64;25.14
75281;HTU21D;63874;47.230;39.620;2023-05-14T10:23:30;28.43;22.11
75281;HTU21D;63874;47.230;39.620;2023-05-14T10:25:57;30.05;20.44
75281;HTU21D;63874;47.230;39.620;2023-05-14T10:28:23;31.87;18.12
75281;HTU21D;63874;47.230;39.620;2023-05-14T10:30:49;33.58;16.25
75281;HTU21D;63874;47.230;39.620;2023-05-14T10:33:15;35.18;14.77
75281;HTU21D;63874;47.230;39.620;2023-05-14T10:36:07;36.44;13.81
75281;HTU21D;63874;47.230;39.620;2023-05-14T10:38:36;36.99;12.80
75281;HTU21D;63874;47.230;39.620;2023-05-14T10:41:04;37.60;12.10
75281;HTU21D;63874;47.230;39.620;2023-05-14T10:43:38;38.30;12.18
75281;HTU21D;63874;47.230;39.620;2023-05-14T10:46:05;38.40;11.95
75281;HTU21D;63874;47.230;39.620;2023-05-14T10:48:32;38.25;12.19
75281;HTU21D;63874;47.230;39.620;2023-05-14T10:50:58;38.40;12.30
75281;HTU21D;63874;47.230;39.620;2023-05-14T10:53:36;38.11;12.34
75281;HTU21D;63874;47.230;39.620;2023-05-14T10:56:02;37.76;13.50
75281;HTU21D;63874;47.230;39.620;2023-05-14T10:58:30;37.63;12.86
75281;HTU21D;63874;47.230;39.620;2023-05-14T11:00:59;37.20;13.05
75281;HTU21D;63874;47.230;39.620;2023-05-14T11:03:29;36.89;13.42
75281;HTU21D;63874;47.230;39.620;2023-05-14T11:05:56;37.48;13.21
75281;HTU21D;63874;47.230;39.620;2023-05-14T11:08:25;37.84;12.90
75281;HTU21D;63874;47.230;39.620;2023-05-14T11:10:51;37.49;13.28
75281;HTU21D;63874;47.230;39.620;2023-05-14T11:13:18;37.01;13.60
75281;HTU21D;63874;47.230;39.620;2023-05-14T11:15:45;35.59;14.39
75281;HTU21D;63874;47.230;39.620;2023-05-14T11:18:13;33.74;16.16
75281;HTU21D;63874;47.230;39.620;2023-05-14T11:20:39;32.34;17.72
75281;HTU21D;63874;47.230;39.620;2023-05-14T11:23:05;31.95;18.66
75281;HTU21D;63874;47.230;39.620;2023-05-14T11:25:31;32.41;17.99
75281;HTU21D;63874;47.230;39.620;2023-05-14T11:27:57;32.69;17.64
75281;HTU21D;63874;47.230;39.620;2023-05-14T11:30:25;32.04;17.98
75281;HTU21D;63874;47.230;39.620;2023-05-14T11:32:51;31.13;18.98
75281;HTU21D;63874;47.230;39.620;2023-05-14T11:35:18;30.05;20.12
75281;HTU21D;63874;47.230;39.620;2023-05-14T11:37:51;28.98;21.28
75281;HTU21D;63874;47.230;39.620;2023-05-14T11:40:17;28.25;22.62
75281;HTU21D;63874;47.230;39.620;2023-05-14T11:42:43;27.72;23.53
75281;HTU21D;63874;47.230;39.620;2023-05-14T11:45:22;27.45;24.27
75281;HTU21D;63874;47.230;39.620;2023-05-14T11:47:49;28.46;23.80
75281;HTU21D;63874;47.230;39.620;2023-05-14T11:50:15;29.66;21.99
75281;HTU21D;63874;47.230;39.620;2023-05-14T11:52:41;29.48;21.67
75281;HTU21D;63874;47.230;39.620;2023-05-14T11:55:10;28.69;22.44
75281;HTU21D;63874;47.230;39.620;2023-05-14T11:57:37;27.85;23.40
75281;HTU21D;63874;47.230;39.620;2023-05-14T12:00:03;27.08;24.23
75281;HTU21D;63874;47.230;39.620;2023-05-14T12:02:32;26.41;25.05
75281;HTU21D;63874;47.230;39.620;2023-05-14T12:04:59;25.87;25.60
75281;HTU21D;63874;47.230;39.620;2023-05-14T12:07:28;25.37;26.32
75281;HTU21D;63874;47.230;39.620;2023-05-14T12:10:00;24.91;26.97
75281;HTU21D;63874;47.230;39.620;2023-05-14T12:12:26;24.53;27.78
75281;HTU21D;63874;47.230;39.620;2023-05-14T12:14:52;24.13;32.14
75281;HTU21D;63874;47.230;39.620;2023-05-14T12:17:19;23.42;34.34
75281;HTU21D;63874;47.230;39.620;2023-05-14T12:19:48;22.61;37.56
75281;HTU21D;63874;47.230;39.620;2023-05-14T12:22:19;22.12;38.10
75281;HTU21D;63874;47.230;39.620;2023-05-14T12:24:56;21.79;39.46
75281;HTU21D;63874;47.230;39.620;2023-05-14T12:27:25;21.40;38.85
75281;HTU21D;63874;47.230;39.620;2023-05-14T12:30:05;21.29;38.86
75281;HTU21D;63874;47.230;39.620;2023-05-14T12:32:32;21.28;39.10
75281;HTU21D;63874;47.230;39.620;2023-05-14T12:34:58;21.33;39.11
75281;HTU21D;63874;47.230;39.620;2023-05-14T12:37:26;21.39;38.91
75281;HTU21D;63874;47.230;39.620;2023-05-14T12:39:52;21.44;38.78
75281;HTU21D;63874;47.230;39.620;2023-05-14T12:42:18;21.47;38.59
75281;HTU21D;63874;47.230;39.620;2023-05-14T12:44:43;21.51;38.45
75281;HTU21D;63874;47.230;39.620;2023-05-14T12:47:09;21.54;38.63
75281;HTU21D;63874;47.230;39.620;2023-05-14T12:49:35;21.61;38.78
75281;HTU21D;63874;47.230;39.620;2023-05-14T12:52:01;21.69;38.90
75281;HTU21D;63874;47.230;39.620;2023-05-14T12:54:27;21.76;38.62
75281;HTU21D;63874;47.230;39.620;2023-05-14T12:56:53;21.79;38.70
75281;HTU21D;63874;47.230;39.620;2023-05-14T12:59:19;21.84;38.07
75281;HTU21D;63874;47.230;39.620;2023-05-14T13:01:45;21.93;37.73
75281;HTU21D;63874;47.230;39.620;2023-05-14T13:04:11;22.12;37.56
75281;HTU21D;63874;47.230;39.620;2023-05-14T13:06:38;22.25;37.46
75281;HTU21D;63874;47.230;39.620;2023-05-14T13:09:05;22.37;37.35
75281;HTU21D;63874;47.230;39.620;2023-05-14T13:11:31;22.52;37.15
75281;HTU21D;63874;47.230;39.620;2023-05-14T13:13:58;22.58;37.04
75281;HTU21D;63874;47.230;39.620;2023-05-14T13:16:25;22.65;36.92
75281;HTU21D;63874;47.230;39.620;2023-05-14T13:18:51;22.72;37.23
75281;HTU21D;63874;47.230;39.620;2023-05-14T13:21:17;22.85;36.56
75281;HTU21D;63874;47.230;39.620;2023-05-14T13:23:43;22.96;35.96
75281;HTU21D;63874;47.230;39.620;2023-05-14T13:26:09;23.07;35.41
75281;HTU21D;63874;47.230;39.620;2023-05-14T13:28:35;23.15;35.05
75281;HTU21D;63874;47.230;39.620;2023-05-14T13:31:07;23.28;34.71
75281;HTU21D;63874;47.230;39.620;2023-05-14T13:33:39;23.36;34.03
75281;HTU21D;63874;47.230;39.620;2023-05-14T13:36:05;23.44;33.57
75281;HTU21D;63874;47.230;39.620;2023-05-14T13:38:31;23.52;33.27
75281;HTU21D;63874;47.230;39.620;2023-05-14T13:40:57;23.56;32.92
75281;HTU21D;63874;47.230;39.620;2023-05-14T13:43:30;23.56;32.95
75281;HTU21D;63874;47.230;39.620;2023-05-14T13:45:56;23.53;33.15
75281;HTU21D;63874;47.230;39.620;2023-05-14T13:48:23;23.43;33.37
75281;HTU21D;63874;47.230;39.620;2023-05-14T13:50:49;23.34;33.70
75281;HTU21D;63874;47.230;39.620;2023-05-14T13:53:17;23.25;34.12
75281;HTU21D;63874;47.230;39.620;2023-05-14T13:55:43;23.18;34.37
75281;HTU21D;63874;47.230;39.620;2023-05-14T13:58:09;23.12;34.78
75281;HTU21D;63874;47.230;39.620;2023-05-14T14:00:35;23.10;34.99
75281;HTU21D;63874;47.230;39.620;2023-05-14T14:03:01;23.08;35.27
75281;HTU21D;63874;47.230;39.620;2023-05-14T14:05:27;23.10;35.46
75281;HTU21D;63874;47.230;39.620;2023-05-14T14:07:54;23.13;35.64
75281;HTU21D;63874;47.230;39.620;2023-05-14T14:10:20;23.12;35.87
75281;HTU21D;63874;47.230;39.620;2023-05-14T14:12:47;23.13;35.99
75281;HTU21D;63874;47.230;39.620;2023-05-14T14:15:13;23.09;36.07
75281;HTU21D;63874;47.230;39.620;2023-05-14T14:17:39;23.05;36.32
75281;HTU21D;63874;47.230;39.620;2023-05-14T14:20:07;22.94;36.67
75281;HTU21D;63874;47.230;39.620;2023-05-14T14:22:34;22.90;36.83
75281;HTU21D;63874;47.230;39.620;2023-05-14T14:25:00;22.87;37.19
75281;HTU21D;63874;47.230;39.620;2023-05-14T14:27:29;22.82;37.27
75281;HTU21D;63874;47.230;39.620;2023-05-14T14:30:12;22.76;37.11
75281;HTU21D;63874;47.230;39.620;2023-05-14T14:32:45;22.70;37.26
75281;HTU21D;63874;47.230;39.620;2023-05-14T14:35:13;22.67;37.49
75281;HTU21D;63874;47.230;39.620;2023-05-14T14:37:41;22.64;37.67
75281;HTU21D;63874;47.230;39.620;2023-05-14T14:40:08;22.57;37.83
75281;HTU21D;63874;47.230;39.620;2023-05-14T14:42:35;22.52;37.75
75281;HTU21D;63874;47.230;39.620;2023-05-14T14:45:03;22.44;37.82
75281;HTU21D;63874;47.230;39.620;2023-05-14T14:47:29;22.37;37.94
75281;HTU21D;63874;47.230;39.620;2023-05-14T14:49:56;22.26;38.09
75281;HTU21D;63874;47.230;39.620;2023-05-14T14:52:25;22.17;38.38
75281;HTU21D;63874;47.230;39.620;2023-05-14T14:54:51;22.08;38.63
75281;HTU21D;63874;47.230;39.620;2023-05-14T14:57:17;21.98;38.82
75281;HTU21D;63874;47.230;39.620;2023-05-14T14:59:43;21.88;38.98
75281;HTU21D;63874;47.230;39.620;2023-05-14T15:02:09;21.81;39.20
75281;HTU21D;63874;47.230;39.620;2023-05-14T15:04:36;21.73;39.16
75281;HTU21D;63874;47.230;39.620;2023-05-14T15:07:03;21.66;39.20
75281;HTU21D;63874;47.230;39.620;2023-05-14T15:09:30;21.61;39.33
75281;HTU21D;63874;47.230;39.620;2023-05-14T15:11:56;21.55;39.46
75281;HTU21D;63874;47.230;39.620;2023-05-14T15:14:22;21.52;39.56
75281;HTU21D;63874;47.230;39.620;2023-05-14T15:16:48;21.50;39.62
75281;HTU21D;63874;47.230;39.620;2023-05-14T15:19:14;21.46;39.75